Time;durP1;ratioP1;P1;durP2;ratioP2;P2;SDS_P1;SDS_P2;PMS_P1;PMS_P2;Temp;Humidity;BMP_temperature;BMP_pressure;BME280_temperature;BME280_humidity;BME280_pressure;Samples;Min_cycle;Max_cycle;Signal;HPM_P1;HPM_P2
2023/02/02 00:01:39;;;;;;;10.73;3.03;;;5.70;1.00;;;;;;5096263;28;20731;-37
2023/02/02 00:04:05;;;;;;;9.50;2.53;;;5.60;1.00;;;;;;5096438;28;20513;-37
2023/02/02 00:06:31;;;;;;;7.67;2.83;;;5.60;1.00;;;;;;5097276;28;20741;-37
2023/02/02 00:09:00;;;;;;;9.77;2.80;;;5.60;1.00;;;;;;5095327;28;20179;-38
2023/02/02 00:11:26;;;;;;;5.37;2.40;;;5.60;1.00;;;;;;5095453;28;20422;-37
2023/02/02 00:13:52;;;;;;;3.90;2.60;;;5.60;1.00;;;;;;5097009;28;20426;-37
2023/02/02 00:16:35;;;;;;;9.90;2.77;;;5.60;2.40;;;;;;5096851;28;20409;-37
2023/02/02 00:19:07;;;;;;;9.97;2.50;;;5.60;1.00;;;;;;5097239;28;20469;-37
2023/02/02 00:21:34;;;;;;;6.27;2.40;;;5.60;39.60;;;;;;5097328;28;20445;-37
2023/02/02 00:24:00;;;;;;;13.60;3.90;;;5.60;9.50;;;;;;5096812;28;20466;-35
2023/02/02 00:26:27;;;;;;;8.60;3.30;;;5.60;19.00;;;;;;5095567;28;20446;-37
2023/02/02 00:28:53;;;;;;;6.90;2.70;;;5.60;99.90;;;;;;5096617;28;20437;-37
2023/02/02 00:31:19;;;;;;;11.67;2.80;;;5.60;99.90;;;;;;5096781;28;20422;-37
2023/02/02 00:33:46;;;;;;;10.70;2.77;;;5.60;79.90;;;;;;5094768;28;20173;-37
2023/02/02 00:36:11;;;;;;;7.03;3.07;;;5.60;91.00;;;;;;5096244;28;20442;-37
2023/02/02 00:38:37;;;;;;;10.83;2.67;;;5.60;99.90;;;;;;5095795;28;20508;-38
2023/02/02 00:41:03;;;;;;;7.47;2.50;;;5.70;90.90;;;;;;5096680;28;20191;-38
2023/02/02 00:43:29;;;;;;;5.10;2.40;;;5.70;32.80;;;;;;5095876;28;20233;-37
2023/02/02 00:45:55;;;;;;;11.43;2.80;;;5.70;1.00;;;;;;5095808;28;20418;-38
2023/02/02 00:48:21;;;;;;;6.83;2.40;;;5.70;1.00;;;;;;5093941;28;20180;-37
2023/02/02 00:50:47;;;;;;;7.50;2.37;;;5.70;1.00;;;;;;5095201;28;20494;-38
2023/02/02 00:53:12;;;;;;;6.30;2.60;;;5.70;17.80;;;;;;5094750;28;20516;-37
2023/02/02 00:55:38;;;;;;;3.77;2.13;;;5.70;5.40;;;;;;5095285;28;20293;-37
2023/02/02 00:58:04;;;;;;;4.00;2.23;;;5.80;1.00;;;;;;5095557;28;20369;-37
2023/02/02 01:00:29;;;;;;;5.30;1.80;;;5.70;1.00;;;;;;5095333;28;20241;-37
2023/02/02 01:02:55;;;;;;;5.40;2.00;;;5.70;1.00;;;;;;5096761;28;20169;-37
2023/02/02 01:05:21;;;;;;;7.40;2.70;;;5.80;1.00;;;;;;5096000;28;20592;-37
2023/02/02 01:07:47;;;;;;;5.07;1.77;;;5.80;1.00;;;;;;5094850;28;20869;-35
2023/02/02 01:10:17;;;;;;;8.37;2.67;;;5.80;1.00;;;;;;5094980;28;20430;-37
2023/02/02 01:12:43;;;;;;;6.63;2.07;;;5.80;1.00;;;;;;5094315;28;20225;-36
2023/02/02 01:15:10;;;;;;;5.50;2.10;;;5.80;1.00;;;;;;5095565;28;20423;-37
2023/02/02 01:17:36;;;;;;;3.93;1.90;;;5.80;1.00;;;;;;5095888;28;20891;-36
2023/02/02 01:20:02;;;;;;;5.87;2.37;;;5.80;1.00;;;;;;5095260;28;20471;-37
2023/02/02 01:22:28;;;;;;;3.10;1.87;;;5.80;1.00;;;;;;5096638;28;20422;-37
2023/02/02 01:24:53;;;;;;;3.47;1.80;;;5.80;1.00;;;;;;5096378;28;20560;-36
2023/02/02 01:27:19;;;;;;;3.90;1.70;;;5.90;1.00;;;;;;5095693;28;20193;-37
2023/02/02 01:29:45;;;;;;;6.17;2.20;;;5.80;1.00;;;;;;5094907;28;20252;-37
2023/02/02 01:32:10;;;;;;;3.80;1.63;;;5.80;1.00;;;;;;5096261;28;20351;-37
2023/02/02 01:34:40;;;;;;;4.80;1.87;;;5.80;99.90;;;;;;5095377;28;20341;-37
2023/02/02 01:37:06;;;;;;;3.20;1.90;;;5.80;99.90;;;;;;5096940;28;20217;-36
2023/02/02 01:39:32;;;;;;;4.23;1.93;;;5.80;1.00;;;;;;5099805;28;20495;-37
2023/02/02 01:41:58;;;;;;;2.93;1.83;;;5.80;1.00;;;;;;5099718;28;20435;-37
2023/02/02 01:44:51;;;;;;;6.57;1.50;;;5.80;1.00;;;;;;5098020;28;20180;-36
2023/02/02 01:47:24;;;;;;;5.00;1.80;;;5.80;39.30;;;;;;5099889;28;20199;-36
2023/02/02 01:49:50;;;;;;;3.80;1.90;;;5.80;92.30;;;;;;5098882;28;20509;-35
2023/02/02 01:52:18;;;;;;;4.07;1.70;;;5.70;99.90;;;;;;5099600;28;20418;-37
2023/02/02 01:54:54;;;;;;;4.43;1.50;;;5.70;99.90;;;;;;5099293;28;20824;-37
2023/02/02 01:57:22;;;;;;;3.40;2.47;;;5.70;99.90;;;;;;5098296;28;20511;-37
2023/02/02 01:59:48;;;;;;;4.03;1.80;;;5.70;1.00;;;;;;5098282;28;20496;-36
2023/02/02 02:02:14;;;;;;;2.93;1.20;;;5.70;99.90;;;;;;5099082;28;20414;-37
2023/02/02 02:04:42;;;;;;;6.07;1.80;;;5.60;99.90;;;;;;5095801;28;20882;-37
2023/02/02 02:07:09;;;;;;;4.00;1.30;;;5.70;1.00;;;;;;5081439;28;20749;-37
2023/02/02 02:09:34;;;;;;;3.33;1.70;;;5.70;1.00;;;;;;5098001;28;20426;-37
2023/02/02 02:12:00;;;;;;;5.10;1.93;;;5.60;1.00;;;;;;5099310;28;20467;-37
2023/02/02 02:17:36;;;;;;;3.53;2.33;;;5.70;1.00;;;;;;5098755;28;20172;-37
2023/02/02 02:26:34;;;;;;;2.87;1.50;;;5.70;1.00;;;;;;5098177;28;20483;-37
2023/02/02 02:29:18;;;;;;;8.50;2.00;;;5.70;99.90;;;;;;5099955;28;20414;-38
2023/02/02 02:32:02;;;;;;;3.30;1.63;;;5.70;99.90;;;;;;5098931;28;20524;-38
2023/02/02 02:34:56;;;;;;;5.70;2.50;;;5.70;99.90;;;;;;5098331;28;20425;-36
2023/02/02 02:37:37;;;;;;;3.40;1.57;;;5.60;1.00;;;;;;5090193;28;20510;-36
2023/02/02 02:40:31;;;;;;;4.80;1.70;;;5.70;1.00;;;;;;5097423;28;20508;-36
2023/02/02 02:43:06;;;;;;;2.70;1.20;;;5.70;1.00;;;;;;5097860;28;20418;-37
2023/02/02 02:45:43;;;;;;;4.60;1.20;;;5.70;1.00;;;;;;5096624;28;20433;-37
2023/02/02 02:48:09;;;;;;;2.50;1.47;;;5.70;1.00;;;;;;5095887;28;20704;-36
2023/02/02 02:50:36;;;;;;;7.57;2.77;;;5.70;1.00;;;;;;5097481;28;20472;-36
2023/02/02 02:53:08;;;;;;;2.63;1.30;;;5.80;99.90;;;;;;5097677;28;20538;-37
2023/02/02 02:56:07;;;;;;;3.17;1.50;;;5.80;99.90;;;;;;5098645;28;20426;-37
2023/02/02 02:59:01;;;;;;;4.87;1.30;;;5.80;99.90;;;;;;5097939;28;20524;-36
2023/02/02 03:01:39;;;;;;;3.77;1.63;;;5.80;99.90;;;;;;5097983;28;21059;-37
2023/02/02 03:04:12;;;;;;;3.43;1.57;;;5.80;99.90;;;;;;5080455;28;20445;-38
2023/02/02 03:06:46;;;;;;;3.10;1.67;;;5.80;99.90;;;;;;5096187;28;20699;-37
2023/02/02 03:09:17;;;;;;;2.63;1.20;;;5.80;99.90;;;;;;5096794;28;20718;-38
2023/02/02 03:11:43;;;;;;;2.27;1.37;;;5.80;99.90;;;;;;5097499;28;20501;-37
2023/02/02 03:14:08;;;;;;;2.93;1.40;;;5.80;99.90;;;;;;5097816;28;20790;-37
2023/02/02 03:16:36;;;;;;;3.37;1.27;;;5.80;99.90;;;;;;5096177;28;20180;-37
2023/02/02 03:19:03;;;;;;;2.13;1.10;;;5.80;99.90;;;;;;5097313;28;20284;-36
2023/02/02 03:21:29;;;;;;;3.07;0.90;;;5.80;1.00;;;;;;5096371;28;20422;-36
2023/02/02 03:23:55;;;;;;;2.20;1.00;;;5.80;81.10;;;;;;5095793;28;20713;-37
2023/02/02 03:26:20;;;;;;;4.53;1.00;;;5.80;99.90;;;;;;5096254;28;20506;-36
2023/02/02 03:28:47;;;;;;;3.67;1.40;;;5.70;99.90;;;;;;5095353;28;20211;-37
2023/02/02 03:31:12;;;;;;;4.43;1.20;;;5.80;1.00;;;;;;5094876;28;20188;-36
2023/02/02 03:33:38;;;;;;;2.70;1.30;;;5.70;1.00;;;;;;5095811;28;20483;-37
2023/02/02 03:36:05;;;;;;;1.80;1.20;;;5.70;1.00;;;;;;5097164;28;20570;-36
2023/02/02 03:38:30;;;;;;;2.40;1.00;;;5.70;1.00;;;;;;5097118;28;20215;-38
2023/02/02 03:40:56;;;;;;;2.83;1.20;;;5.70;1.00;;;;;;5096835;28;20761;-37
2023/02/02 03:43:22;;;;;;;2.47;1.30;;;5.70;1.00;;;;;;5095249;28;20278;-37
2023/02/02 03:45:59;;;;;;;3.60;1.40;;;5.70;10.00;;;;;;5095939;28;20169;-37
2023/02/02 03:48:25;;;;;;;4.97;1.50;;;5.80;1.00;;;;;;5096181;28;20533;-37
2023/02/02 03:50:51;;;;;;;3.20;1.40;;;5.80;1.00;;;;;;5095708;28;20426;-37
2023/02/02 03:53:17;;;;;;;1.90;1.10;;;5.80;1.00;;;;;;5095570;28;20434;-37
2023/02/02 03:55:42;;;;;;;2.57;1.20;;;5.80;1.00;;;;;;5095347;28;20279;-37
2023/02/02 03:58:08;;;;;;;3.50;1.43;;;5.80;1.00;;;;;;5096583;28;20208;-37
2023/02/02 04:00:34;;;;;;;2.97;1.10;;;5.80;1.00;;;;;;5093754;28;20176;-37
2023/02/02 04:03:00;;;;;;;1.83;1.20;;;5.80;1.00;;;;;;5094239;28;20176;-37
2023/02/02 04:05:26;;;;;;;6.73;1.33;;;5.80;1.00;;;;;;5093938;28;20255;-37
2023/02/02 04:07:52;;;;;;;2.60;1.40;;;5.80;1.00;;;;;;5095476;28;20640;-36
2023/02/02 04:10:18;;;;;;;4.53;1.37;;;5.80;1.00;;;;;;5096940;28;20410;-36
2023/02/02 04:12:44;;;;;;;2.90;1.10;;;5.80;1.00;;;;;;5096321;28;20441;-37
2023/02/02 04:15:10;;;;;;;2.57;1.10;;;5.80;1.00;;;;;;5096206;28;20447;-37
2023/02/02 04:17:35;;;;;;;2.30;1.40;;;5.80;1.00;;;;;;5096805;28;20446;-37
2023/02/02 04:20:03;;;;;;;2.30;1.30;;;5.80;1.00;;;;;;5095422;28;20498;-37
2023/02/02 04:22:28;;;;;;;2.10;1.33;;;5.80;1.00;;;;;;5095506;28;20180;-37
2023/02/02 04:24:54;;;;;;;4.10;1.20;;;5.80;1.00;;;;;;5095647;28;20470;-36
2023/02/02 04:27:20;;;;;;;2.60;1.40;;;5.80;1.00;;;;;;5094841;28;20200;-38
2023/02/02 04:29:45;;;;;;;2.40;1.00;;;5.80;1.00;;;;;;5095860;28;20627;-37
2023/02/02 04:32:14;;;;;;;2.37;1.10;;;5.80;1.00;;;;;;5095265;28;20457;-37
2023/02/02 04:34:39;;;;;;;3.80;1.30;;;5.80;1.00;;;;;;5093373;28;20211;-39
2023/02/02 04:37:05;;;;;;;4.40;1.10;;;5.80;1.00;;;;;;5092918;28;20422;-36
2023/02/02 04:39:30;;;;;;;5.60;1.30;;;5.80;1.00;;;;;;5094622;28;20176;-37
2023/02/02 04:41:56;;;;;;;2.00;1.10;;;5.80;1.00;;;;;;5094863;28;20172;-37
2023/02/02 04:44:22;;;;;;;4.73;1.07;;;5.80;1.00;;;;;;5093776;28;20177;-37
2023/02/02 04:46:47;;;;;;;1.90;1.30;;;5.80;1.00;;;;;;5095084;28;20198;-37
2023/02/02 04:49:13;;;;;;;2.43;1.20;;;5.80;1.00;;;;;;5095274;28;20212;-37
2023/02/02 04:51:39;;;;;;;6.07;2.23;;;5.80;1.00;;;;;;5094579;28;20169;-37
2023/02/02 04:54:06;;;;;;;3.10;1.13;;;5.80;1.00;;;;;;5095103;28;20249;-37
2023/02/02 04:56:32;;;;;;;2.80;1.20;;;5.80;1.00;;;;;;5096306;28;20415;-38
2023/02/02 04:58:57;;;;;;;2.30;1.47;;;5.90;1.00;;;;;;5096589;28;20887;-37
2023/02/02 05:01:23;;;;;;;4.10;1.30;;;5.90;81.10;;;;;;5096844;28;20576;-36
2023/02/02 05:03:49;;;;;;;1.90;1.30;;;5.90;1.00;;;;;;5095141;28;20554;-37
2023/02/02 05:06:16;;;;;;;6.50;1.70;;;5.90;17.30;;;;;;5096136;28;20475;-38
2023/02/02 05:08:42;;;;;;;4.80;1.63;;;5.80;99.90;;;;;;5093976;28;20180;-37
2023/02/02 05:11:14;;;;;;;2.60;1.37;;;5.80;99.90;;;;;;5094486;28;20415;-37
2023/02/02 05:13:43;;;;;;;3.50;1.33;;;5.80;99.90;;;;;;5097147;28;20426;-37
2023/02/02 05:16:09;;;;;;;4.60;1.60;;;5.80;99.90;;;;;;5097172;28;20421;-36
2023/02/02 05:18:34;;;;;;;2.90;1.20;;;5.90;99.90;;;;;;5096489;28;20454;-37
2023/02/02 05:21:01;;;;;;;2.63;1.53;;;5.90;99.90;;;;;;5097571;28;20176;-36
2023/02/02 05:23:27;;;;;;;3.20;1.70;;;5.90;99.90;;;;;;5096083;28;20176;-36
2023/02/02 05:25:53;;;;;;;4.67;1.80;;;5.90;99.90;;;;;;5097712;28;20531;-37
2023/02/02 05:28:20;;;;;;;4.10;1.83;;;5.90;99.90;;;;;;5097248;28;20511;-37
2023/02/02 05:30:45;;;;;;;4.13;1.50;;;5.90;99.90;;;;;;5094679;28;20493;-37
2023/02/02 05:33:11;;;;;;;4.70;1.60;;;5.90;99.90;;;;;;5096341;28;20891;-38
2023/02/02 05:35:37;;;;;;;5.40;1.50;;;5.90;99.90;;;;;;5098094;28;20176;-37
2023/02/02 05:38:03;;;;;;;3.20;1.80;;;5.90;99.90;;;;;;5096972;28;20265;-37
2023/02/02 05:40:28;;;;;;;2.30;1.43;;;5.90;99.90;;;;;;5096234;28;20396;-37
2023/02/02 05:42:54;;;;;;;3.30;1.70;;;5.90;69.90;;;;;;5096671;28;20767;-36
2023/02/02 05:45:20;;;;;;;2.40;1.40;;;5.90;66.00;;;;;;5097087;28;20195;-37
2023/02/02 05:47:46;;;;;;;3.47;1.40;;;5.90;20.20;;;;;;5091910;28;20181;-37
2023/02/02 05:50:11;;;;;;;2.97;1.53;;;6.00;1.00;;;;;;5081130;28;20685;-37
2023/02/02 05:52:38;;;;;;;2.90;1.60;;;6.00;1.00;;;;;;5078398;28;20214;-37
2023/02/02 05:55:04;;;;;;;3.63;1.83;;;6.00;1.00;;;;;;5087120;28;20199;-36
2023/02/02 05:57:30;;;;;;;3.40;1.50;;;6.00;1.00;;;;;;5077907;28;20493;-37
2023/02/02 05:59:55;;;;;;;3.70;1.70;;;6.00;1.00;;;;;;5084815;28;21003;-37
2023/02/02 06:02:21;;;;;;;2.97;1.53;;;6.00;1.00;;;;;;5065624;28;20176;-37
2023/02/02 06:04:46;;;;;;;4.13;1.73;;;6.00;1.00;;;;;;5090215;28;20213;-37
2023/02/02 06:07:14;;;;;;;4.53;1.90;;;6.00;1.00;;;;;;5075888;28;20576;-37
2023/02/02 06:09:40;;;;;;;3.23;1.60;;;6.00;1.00;;;;;;5075175;28;20216;-36
2023/02/02 06:12:06;;;;;;;5.20;2.13;;;6.00;1.00;;;;;;5074950;28;20459;-37
2023/02/02 06:14:32;;;;;;;7.00;1.80;;;6.00;1.00;;;;;;5071795;28;20483;-36
2023/02/02 06:16:57;;;;;;;5.50;2.10;;;6.00;12.90;;;;;;5072915;28;20949;-38
2023/02/02 06:19:23;;;;;;;3.23;1.70;;;6.00;36.60;;;;;;5072053;28;20471;-37
2023/02/02 06:21:48;;;;;;;2.83;1.90;;;6.00;99.40;;;;;;5069543;28;20260;-37
2023/02/02 06:24:15;;;;;;;2.57;1.80;;;6.00;99.90;;;;;;5075196;28;20284;-36
2023/02/02 06:26:40;;;;;;;3.77;1.83;;;6.00;99.90;;;;;;5074800;28;20177;-36
2023/02/02 06:29:06;;;;;;;4.07;2.30;;;6.00;99.90;;;;;;5093687;28;20441;-37
2023/02/02 06:31:32;;;;;;;5.30;2.10;;;6.00;99.90;;;;;;5089281;28;20518;-37
2023/02/02 06:33:58;;;;;;;3.37;1.60;;;6.10;99.90;;;;;;5091659;28;20513;-37
2023/02/02 06:36:25;;;;;;;2.67;1.80;;;6.00;99.90;;;;;;5090336;28;20820;-37
2023/02/02 06:38:52;;;;;;;4.50;1.93;;;6.00;99.90;;;;;;5090611;28;20914;-37
2023/02/02 06:41:20;;;;;;;5.30;2.10;;;6.00;99.90;;;;;;5093183;28;20419;-37
2023/02/02 06:43:47;;;;;;;2.73;1.50;;;6.00;99.90;;;;;;5093657;28;20687;-37
2023/02/02 06:46:13;;;;;;;4.10;1.50;;;6.00;99.90;;;;;;5091158;28;20411;-36
2023/02/02 06:48:38;;;;;;;7.20;1.63;;;6.00;99.90;;;;;;5090024;28;20668;-37
2023/02/02 06:51:05;;;;;;;5.77;1.80;;;6.00;1.00;;;;;;5090796;28;20461;-36
2023/02/02 06:53:31;;;;;;;2.80;1.53;;;6.00;1.00;;;;;;5089460;28;20177;-38
2023/02/02 06:56:02;;;;;;;6.70;1.50;;;6.00;1.00;;;;;;5091221;28;20491;-37
2023/02/02 06:58:29;;;;;;;5.07;1.80;;;6.00;1.00;;;;;;5088474;28;20469;-36
2023/02/02 07:00:54;;;;;;;2.40;1.50;;;6.00;2.60;;;;;;5091211;28;20414;-38
2023/02/02 07:03:21;;;;;;;6.57;1.63;;;6.00;99.90;;;;;;5088864;28;20653;-38
2023/02/02 07:05:49;;;;;;;1.77;1.03;;;5.90;99.90;;;;;;5086950;28;20212;-37
2023/02/02 07:08:15;;;;;;;1.80;1.30;;;5.90;99.90;;;;;;5087919;28;20433;-36
2023/02/02 07:10:43;;;;;;;4.20;1.40;;;5.90;1.00;;;;;;5088363;28;20418;-36
2023/02/02 07:13:08;;;;;;;2.93;1.50;;;5.90;1.00;;;;;;5089444;28;20430;-37
2023/02/02 07:15:34;;;;;;;4.17;2.17;;;5.90;1.00;;;;;;5091504;28;20761;-36
2023/02/02 07:18:00;;;;;;;4.87;1.70;;;5.90;1.00;;;;;;5093263;28;20211;-36
2023/02/02 07:20:26;;;;;;;2.40;1.50;;;5.90;1.00;;;;;;5092300;28;20717;-37
2023/02/02 07:22:52;;;;;;;2.93;1.57;;;5.90;1.00;;;;;;5094267;28;20844;-39
2023/02/02 07:25:17;;;;;;;3.87;2.00;;;5.90;1.00;;;;;;5094005;28;20501;-39
2023/02/02 07:27:43;;;;;;;3.90;1.90;;;5.80;1.00;;;;;;5093260;28;20604;-37
2023/02/02 07:30:10;;;;;;;4.33;2.40;;;5.80;11.70;;;;;;5093685;28;20172;-37
2023/02/02 07:32:35;;;;;;;6.00;2.37;;;5.80;19.50;;;;;;5092822;28;20426;-37
2023/02/02 07:35:01;;;;;;;6.33;2.10;;;5.80;25.00;;;;;;5091970;28;20433;-37
2023/02/02 07:37:27;;;;;;;5.20;2.37;;;5.80;33.20;;;;;;5092664;28;20196;-36
2023/02/02 07:39:52;;;;;;;5.23;2.00;;;5.80;46.40;;;;;;5092280;28;20184;-37
2023/02/02 07:42:18;;;;;;;7.20;2.60;;;5.90;25.30;;;;;;5091211;28;20446;-37
2023/02/02 07:44:43;;;;;;;4.90;2.70;;;5.90;31.00;;;;;;5089252;28;20172;-37
2023/02/02 07:47:09;;;;;;;3.67;2.23;;;6.00;10.60;;;;;;5091709;28;20176;-37
2023/02/02 07:49:35;;;;;;;5.10;2.83;;;6.00;1.00;;;;;;5090493;28;20235;-36
2023/02/02 07:52:00;;;;;;;6.80;2.03;;;6.00;1.00;;;;;;5090544;28;20168;-36
2023/02/02 07:54:26;;;;;;;5.37;2.50;;;6.00;1.00;;;;;;5092122;28;20573;-36
2023/02/02 07:56:51;;;;;;;2.60;1.60;;;6.00;1.00;;;;;;5092116;28;20169;-37
2023/02/02 07:59:17;;;;;;;11.43;2.50;;;6.10;1.00;;;;;;5090428;28;20208;-37
2023/02/02 08:01:42;;;;;;;4.53;2.27;;;6.10;1.00;;;;;;5090587;28;20175;-37
2023/02/02 08:04:08;;;;;;;6.53;2.47;;;6.10;1.00;;;;;;5091960;28;20180;-36
2023/02/02 08:06:36;;;;;;;4.03;2.27;;;6.20;99.90;;;;;;5094975;28;20585;-36
2023/02/02 08:09:03;;;;;;;6.40;2.47;;;6.20;99.90;;;;;;5093008;28;20213;-37
2023/02/02 08:11:29;;;;;;;4.50;2.90;;;6.20;99.90;;;;;;5092795;28;20443;-37
2023/02/02 08:13:57;;;;;;;4.20;2.10;;;6.30;99.90;;;;;;5093841;28;20429;-37
2023/02/02 08:16:24;;;;;;;9.57;1.90;;;6.40;99.90;;;;;;5094826;28;20480;-37
2023/02/02 08:18:50;;;;;;;3.10;1.80;;;6.40;93.70;;;;;;5076705;28;20802;-37
2023/02/02 08:21:16;;;;;;;4.90;1.90;;;6.50;1.00;;;;;;5090659;28;20468;-37
2023/02/02 08:23:44;;;;;;;4.27;2.60;;;6.60;1.00;;;;;;5091253;28;20410;-37
2023/02/02 08:26:12;;;;;;;5.10;1.80;;;6.70;99.90;;;;;;5092028;28;20851;-36
2023/02/02 08:28:40;;;;;;;5.37;2.30;;;6.80;99.90;;;;;;5090695;28;20731;-36
2023/02/02 08:31:07;;;;;;;5.90;1.63;;;6.90;1.00;;;;;;5091640;28;20545;-40
2023/02/02 08:33:33;;;;;;;7.40;2.27;;;7.00;1.00;;;;;;5093098;28;20445;-37
2023/02/02 08:35:59;;;;;;;4.37;2.07;;;7.20;99.90;;;;;;5090448;28;20729;-36
2023/02/02 08:38:24;;;;;;;5.80;2.30;;;7.30;1.00;;;;;;5092534;28;20244;-38
2023/02/02 08:40:50;;;;;;;3.30;1.50;;;7.40;99.90;;;;;;5093261;28;20168;-39
2023/02/02 08:43:16;;;;;;;2.67;1.60;;;7.70;99.90;;;;;;5092471;28;20164;-39
2023/02/02 08:45:42;;;;;;;2.67;2.47;;;8.70;1.00;;;;;;5093801;28;20173;-36
2023/02/02 08:48:08;;;;;;;5.50;2.50;;;9.50;1.00;;;;;;5096540;28;20800;-37
2023/02/02 08:50:34;;;;;;;5.77;2.30;;;9.70;99.90;;;;;;5095632;28;20588;-37
2023/02/02 08:52:59;;;;;;;5.00;2.00;;;9.50;99.90;;;;;;5096101;28;20188;-37
2023/02/02 08:55:25;;;;;;;4.53;1.70;;;9.30;99.90;;;;;;5096811;28;20614;-36
2023/02/02 08:57:51;;;;;;;5.93;2.03;;;9.00;1.00;;;;;;5097597;28;20204;-36
2023/02/02 09:00:17;;;;;;;7.20;4.20;;;8.80;1.00;;;;;;5096446;28;20176;-36
2023/02/02 09:02:42;;;;;;;2.10;1.57;;;8.50;99.90;;;;;;5098215;28;20271;-36
2023/02/02 09:05:08;;;;;;;2.23;1.77;;;8.30;99.90;;;;;;5100233;28;20416;-37
2023/02/02 09:07:34;;;;;;;3.83;1.90;;;8.10;99.90;;;;;;5105767;28;20243;-37
2023/02/02 09:09:59;;;;;;;4.23;1.90;;;8.00;1.00;;;;;;5101831;28;20191;-36
2023/02/02 09:12:25;;;;;;;4.57;2.10;;;7.90;1.00;;;;;;5098111;28;20508;-37
2023/02/02 09:14:51;;;;;;;3.97;2.27;;;7.70;1.00;;;;;;5097246;28;20561;-37
2023/02/02 09:17:17;;;;;;;4.23;2.50;;;7.70;1.00;;;;;;5096794;28;20457;-36
2023/02/02 09:19:42;;;;;;;4.63;1.97;;;7.50;1.00;;;;;;5096114;28;20172;-37
2023/02/02 09:22:08;;;;;;;3.70;2.20;;;7.50;11.40;;;;;;5096904;28;20172;-37
2023/02/02 09:24:34;;;;;;;5.50;2.40;;;7.50;99.90;;;;;;5094905;28;20225;-37
2023/02/02 09:26:59;;;;;;;3.67;1.70;;;7.40;99.90;;;;;;5095998;28;20561;-37
2023/02/02 09:29:25;;;;;;;4.30;1.90;;;7.40;99.90;;;;;;5095315;28;20267;-37
2023/02/02 09:31:50;;;;;;;5.07;1.97;;;7.40;99.90;;;;;;5095807;28;20207;-37
2023/02/02 09:34:16;;;;;;;3.80;1.87;;;7.40;99.90;;;;;;5095652;28;20537;-38
2023/02/02 09:36:43;;;;;;;6.73;2.43;;;7.50;99.90;;;;;;5097627;28;20511;-38
2023/02/02 09:39:11;;;;;;;3.80;2.40;;;7.50;99.90;;;;;;5097102;28;20485;-37
2023/02/02 09:41:54;;;;;;;5.73;2.10;;;7.50;99.90;;;;;;5095819;28;20498;-37
2023/02/02 09:44:58;;;;;;;5.27;2.40;;;7.60;99.90;;;;;;5093916;28;20676;-36
2023/02/02 09:47:57;;;;;;;5.47;2.30;;;7.70;99.90;;;;;;5095686;28;20417;-37
2023/02/02 09:50:28;;;;;;;5.03;2.77;;;7.70;21.70;;;;;;5094511;28;20849;-37
2023/02/02 09:53:06;;;;;;;11.63;2.67;;;7.70;1.00;;;;;;5095822;28;20426;-37
2023/02/02 09:55:39;;;;;;;3.37;1.70;;;7.70;1.00;;;;;;5095705;28;20406;-37
2023/02/02 09:58:23;;;;;;;8.43;2.67;;;7.70;1.00;;;;;;5094370;28;20563;-37
2023/02/02 10:01:07;;;;;;;3.03;2.03;;;7.60;1.00;;;;;;5093613;28;20407;-37
2023/02/02 10:04:02;;;;;;;7.67;2.60;;;7.60;1.00;;;;;;5093428;28;20482;-37
2023/02/02 10:06:42;;;;;;;7.30;2.10;;;7.60;1.00;;;;;;5096822;28;20831;-37
2023/02/02 10:09:25;;;;;;;4.60;2.17;;;7.60;1.00;;;;;;5076553;28;20800;-36
2023/02/02 10:11:57;;;;;;;4.63;2.33;;;7.60;1.00;;;;;;5095060;28;20441;-37
2023/02/02 10:14:30;;;;;;;5.27;2.23;;;7.60;1.00;;;;;;5095409;28;20509;-36
2023/02/02 10:16:57;;;;;;;6.23;2.37;;;7.60;22.90;;;;;;5093892;28;20831;-36
2023/02/02 10:19:29;;;;;;;3.17;2.00;;;7.60;64.30;;;;;;5094152;28;20911;-37
2023/02/02 10:22:14;;;;;;;4.10;2.13;;;7.60;63.40;;;;;;5094997;28;20495;-37
2023/02/02 10:24:40;;;;;;;5.63;2.37;;;7.60;17.20;;;;;;5095220;28;20458;-37
2023/02/02 10:27:13;;;;;;;5.77;2.20;;;7.60;22.50;;;;;;5094535;28;20440;-37
2023/02/02 10:29:55;;;;;;;8.07;2.77;;;7.60;99.90;;;;;;5094540;28;20441;-37
2023/02/02 10:32:42;;;;;;;6.17;2.50;;;7.60;99.90;;;;;;5093792;28;20422;-37
2023/02/02 10:35:25;;;;;;;6.60;2.30;;;7.70;99.90;;;;;;5096040;28;20414;-37
2023/02/02 10:38:11;;;;;;;5.50;2.20;;;7.70;99.90;;;;;;5094557;28;20506;-37
2023/02/02 10:40:42;;;;;;;3.30;1.93;;;7.70;99.90;;;;;;5095891;28;20438;-37
2023/02/02 10:46:11;;;;;;;4.93;2.67;;;7.70;1.00;;;;;;5095997;28;20472;-37
2023/02/02 10:48:38;;;;;;;3.90;2.80;;;7.70;1.00;;;;;;5094992;28;20434;-37
2023/02/02 10:51:32;;;;;;;4.17;2.20;;;7.70;1.00;;;;;;5095044;28;20505;-37
2023/02/02 10:53:59;;;;;;;4.83;2.70;;;7.80;1.00;;;;;;5090124;28;20431;-36
2023/02/02 10:56:41;;;;;;;4.80;2.27;;;7.90;14.80;;;;;;5091713;28;20433;-37
2023/02/02 10:59:27;;;;;;;3.97;1.87;;;7.90;1.00;;;;;;5090602;28;20550;-37
2023/02/02 11:01:53;;;;;;;3.30;2.10;;;8.00;1.00;;;;;;5093907;28;20836;-37
2023/02/02 11:07:05;;;;;;;3.47;1.90;;;7.90;99.90;;;;;;5097204;28;20187;-37
2023/02/02 11:09:34;;;;;;;4.93;2.33;;;7.90;99.90;;;;;;5094577;28;20410;-37
2023/02/02 11:12:24;;;;;;;3.80;2.33;;;7.80;99.90;;;;;;5093198;28;20232;-37
2023/02/02 11:15:00;;;;;;;8.00;2.80;;;7.70;1.00;;;;;;5093903;28;20511;-37
2023/02/02 11:17:26;;;;;;;3.93;2.70;;;7.60;1.00;;;;;;5093622;28;20860;-36
2023/02/02 11:19:54;;;;;;;8.00;2.40;;;7.50;99.90;;;;;;5094217;28;20436;-36
2023/02/02 11:22:31;;;;;;;2.40;2.17;;;7.50;99.90;;;;;;5092521;28;20423;-36
2023/02/02 11:25:00;;;;;;;5.97;2.70;;;7.50;99.90;;;;;;5094281;28;20541;-36
2023/02/02 11:27:27;;;;;;;5.80;3.33;;;7.40;1.00;;;;;;5092893;28;20426;-37
2023/02/02 11:30:08;;;;;;;7.67;3.60;;;7.40;1.00;;;;;;5093601;28;20515;-36
2023/02/02 11:32:36;;;;;;;8.23;3.30;;;7.40;1.00;;;;;;5092913;28;20418;-35
2023/02/02 11:35:19;;;;;;;7.90;2.30;;;7.40;1.00;;;;;;5093276;28;20767;-36
2023/02/02 11:38:06;;;;;;;7.40;3.53;;;7.40;99.90;;;;;;5093442;28;20514;-36
2023/02/02 11:40:36;;;;;;;5.00;2.60;;;7.50;99.90;;;;;;5093391;28;20414;-36
2023/02/02 11:43:24;;;;;;;7.63;2.40;;;7.50;99.90;;;;;;5093933;28;20478;-37
2023/02/02 11:46:02;;;;;;;6.93;2.47;;;7.60;99.90;;;;;;5094345;28;20751;-37
2023/02/02 11:48:31;;;;;;;5.53;3.00;;;7.60;38.50;;;;;;5094541;28;20414;-36
2023/02/02 11:50:58;;;;;;;5.30;3.50;;;7.60;1.00;;;;;;5093463;28;20419;-37
2023/02/02 11:53:31;;;;;;;4.13;2.47;;;7.60;1.00;;;;;;5092311;28;20411;-37
2023/02/02 11:56:00;;;;;;;3.07;2.10;;;7.60;99.90;;;;;;5092426;28;20501;-36
2023/02/02 11:58:28;;;;;;;4.63;2.20;;;7.60;99.90;;;;;;5092299;28;20470;-36
2023/02/02 12:01:02;;;;;;;10.50;2.70;;;7.60;99.90;;;;;;5092730;28;20665;-37
2023/02/02 12:03:32;;;;;;;4.77;2.20;;;7.60;99.90;;;;;;5091939;28;20471;-37
2023/02/02 12:05:58;;;;;;;7.53;2.23;;;7.60;1.00;;;;;;5092385;28;20650;-36
2023/02/02 12:08:24;;;;;;;5.50;2.50;;;7.70;99.90;;;;;;5090805;28;20688;-36
2023/02/02 12:11:01;;;;;;;5.73;2.87;;;7.80;99.90;;;;;;5090575;28;20430;-36
2023/02/02 12:13:45;;;;;;;3.77;1.90;;;7.90;99.90;;;;;;5089461;28;20418;-36
2023/02/02 12:16:11;;;;;;;2.60;1.70;;;8.00;99.90;;;;;;5089927;28;20517;-37
2023/02/02 12:18:48;;;;;;;3.20;1.40;;;8.10;6.60;;;;;;5093065;28;20693;-37
2023/02/02 12:21:30;;;;;;;7.03;2.00;;;8.10;1.00;;;;;;5072017;28;20579;-36
2023/02/02 12:24:23;;;;;;;4.00;1.90;;;8.20;1.00;;;;;;5071446;28;20534;-35
2023/02/02 12:27:36;;;;;;;4.87;1.80;;;8.30;1.00;;;;;;5070390;28;20715;-36
2023/02/02 12:30:16;;;;;;;2.97;1.80;;;8.30;99.90;;;;;;5058090;28;20828;-37
2023/02/02 12:32:53;;;;;;;2.60;1.80;;;8.40;99.90;;;;;;5072358;28;20427;-37
2023/02/02 12:35:39;;;;;;;5.80;2.03;;;8.40;44.80;;;;;;5073374;28;20407;-36
2023/02/02 12:38:47;;;;;;;5.70;2.53;;;8.40;30.00;;;;;;5070484;28;20470;-37
2023/02/02 12:41:30;;;;;;;4.93;1.67;;;8.40;96.70;;;;;;5071258;28;20515;-36
2023/02/02 12:44:20;;;;;;;4.83;1.60;;;8.40;99.90;;;;;;5069548;28;20476;-36
2023/02/02 12:47:27;;;;;;;8.17;2.80;;;8.50;99.90;;;;;;5069457;28;20455;-37
2023/02/02 12:50:23;;;;;;;5.63;2.43;;;8.50;99.90;;;;;;5023099;28;20805;-36
2023/02/02 12:52:55;;;;;;;5.17;2.53;;;8.50;99.90;;;;;;5073845;28;20415;-38
2023/02/02 12:55:44;;;;;;;7.27;2.20;;;8.50;99.90;;;;;;5071967;28;20418;-37
2023/02/02 12:58:41;;;;;;;5.30;1.67;;;8.40;91.20;;;;;;5069817;28;20885;-37
2023/02/02 13:01:30;;;;;;;7.17;2.13;;;8.40;99.90;;;;;;5067987;28;20705;-37
2023/02/02 13:04:11;;;;;;;5.40;1.80;;;8.30;1.00;;;;;;5069720;28;20648;-37
2023/02/02 13:06:55;;;;;;;3.60;2.17;;;8.50;26.30;;;;;;5069874;28;20426;-40
2023/02/02 13:09:40;;;;;;;5.17;1.83;;;8.80;64.50;;;;;;5069315;28;20480;-37
2023/02/02 13:12:10;;;;;;;4.20;1.60;;;9.10;16.20;;;;;;5071260;28;20411;-38
2023/02/02 13:14:40;;;;;;;3.67;1.57;;;9.40;1.00;;;;;;5071112;28;20419;-38
2023/02/02 13:17:15;;;;;;;3.27;1.93;;;9.70;1.00;;;;;;5070527;28;20419;-38
2023/02/02 13:19:44;;;;;;;3.07;2.27;;;9.90;99.90;;;;;;5054668;28;20466;-38
2023/02/02 13:22:15;;;;;;;3.97;1.87;;;10.10;1.00;;;;;;5069927;28;20411;-39
2023/02/02 13:24:43;;;;;;;6.57;2.10;;;10.30;99.90;;;;;;5070222;28;20466;-37
2023/02/02 13:27:13;;;;;;;3.00;1.50;;;10.40;1.00;;;;;;5069159;28;20729;-38
2023/02/02 13:29:52;;;;;;;5.13;2.77;;;10.40;6.70;;;;;;5070681;28;20576;-37
2023/02/02 13:32:26;;;;;;;3.83;1.80;;;10.20;99.90;;;;;;5052358;28;20438;-35
2023/02/02 13:34:56;;;;;;;3.93;2.03;;;9.90;1.00;;;;;;5071600;28;20496;-36